sensor_id;sensor_type;location;lat;lon;timestamp;pressure;altitude;pressure_sealevel;temperature;humidity
63006;BME280;53704;52.532;6.426;2023-01-25T00:01:24;103799.50;;;0.31;100.00
63006;BME280;53704;52.532;6.426;2023-01-25T00:03:49;103794.78;;;-0.08;100.00
63006;BME280;53704;52.532;6.426;2023-01-25T00:06:15;103800.16;;;-0.14;100.00
63006;BME280;53704;52.532;6.426;2023-01-25T00:08:40;103794.44;;;-0.50;100.00
63006;BME280;53704;52.532;6.426;2023-01-25T00:11:06;103796.34;;;0.06;100.00
63006;BME280;53704;52.532;6.426;2023-01-25T00:13:31;103800.41;;;0.28;100.00
63006;BME280;53704;52.532;6.426;2023-01-25T00:16:01;103791.81;;;0.12;100.00
63006;BME280;53704;52.532;6.426;2023-01-25T00:18:27;103796.25;;;0.12;100.00
63006;BME280;53704;52.532;6.426;2023-01-25T00:20:52;103794.41;;;0.17;100.00
63006;BME280;53704;52.532;6.426;2023-01-25T00:23:18;103793.13;;;-0.16;100.00
63006;BME280;53704;52.532;6.426;2023-01-25T00:25:44;103783.63;;;0.28;100.00
63006;BME280;53704;52.532;6.426;2023-01-25T00:28:09;103786.22;;;0.32;100.00
63006;BME280;53704;52.532;6.426;2023-01-25T00:30:34;103780.03;;;0.33;100.00
63006;BME280;53704;52.532;6.426;2023-01-25T00:35:55;103778.22;;;0.35;100.00
63006;BME280;53704;52.532;6.426;2023-01-25T00:38:33;103776.31;;;-0.14;100.00
63006;BME280;53704;52.532;6.426;2023-01-25T00:40:59;103780.38;;;0.10;100.00
63006;BME280;53704;52.532;6.426;2023-01-25T00:43:25;103779.72;;;-0.06;100.00
63006;BME280;53704;52.532;6.426;2023-01-25T00:45:51;103787.47;;;0.08;100.00
63006;BME280;53704;52.532;6.426;2023-01-25T00:48:16;103782.03;;;0.17;100.00
63006;BME280;53704;52.532;6.426;2023-01-25T00:50:42;103782.09;;;0.14;100.00
63006;BME280;53704;52.532;6.426;2023-01-25T00:53:07;103783.22;;;-0.04;100.00
63006;BME280;53704;52.532;6.426;2023-01-25T00:55:33;103777.53;;;0.23;100.00
63006;BME280;53704;52.532;6.426;2023-01-25T00:57:58;103777.78;;;0.62;100.00
63006;BME280;53704;52.532;6.426;2023-01-25T01:00:24;103786.97;;;0.39;100.00
63006;BME280;53704;52.532;6.426;2023-01-25T01:09:16;103773.09;;;0.23;100.00
63006;BME280;53704;52.532;6.426;2023-01-25T01:11:42;103770.41;;;-0.34;100.00
63006;BME280;53704;52.532;6.426;2023-01-25T01:14:08;103768.63;;;-0.32;100.00
63006;BME280;53704;52.532;6.426;2023-01-25T01:16:34;103759.22;;;0.07;100.00
63006;BME280;53704;52.532;6.426;2023-01-25T01:18:59;103759.81;;;0.26;100.00
63006;BME280;53704;52.532;6.426;2023-01-25T01:21:25;103765.09;;;0.28;100.00
63006;BME280;53704;52.532;6.426;2023-01-25T01:23:50;103767.06;;;0.15;100.00
63006;BME280;53704;52.532;6.426;2023-01-25T01:26:17;103761.28;;;0.43;100.00
63006;BME280;53704;52.532;6.426;2023-01-25T01:28:46;103764.84;;;-0.16;100.00
63006;BME280;53704;52.532;6.426;2023-01-25T01:31:20;103762.19;;;-0.16;100.00
63006;BME280;53704;52.532;6.426;2023-01-25T01:33:50;103767.72;;;-0.31;100.00
63006;BME280;53704;52.532;6.426;2023-01-25T01:36:18;103759.78;;;-0.31;100.00
63006;BME280;53704;52.532;6.426;2023-01-25T01:38:44;103764.59;;;0.03;100.00
63006;BME280;53704;52.532;6.426;2023-01-25T01:41:10;103755.72;;;0.07;100.00
63006;BME280;53704;52.532;6.426;2023-01-25T01:43:37;103753.59;;;0.29;100.00
63006;BME280;53704;52.532;6.426;2023-01-25T01:48:35;103757.00;;;0.35;100.00
63006;BME280;53704;52.532;6.426;2023-01-25T01:51:20;103754.00;;;0.03;100.00
63006;BME280;53704;52.532;6.426;2023-01-25T01:53:53;103745.28;;;0.49;100.00
63006;BME280;53704;52.532;6.426;2023-01-25T01:56:25;103747.22;;;-0.15;100.00
63006;BME280;53704;52.532;6.426;2023-01-25T01:58:54;103741.19;;;-0.25;100.00
63006;BME280;53704;52.532;6.426;2023-01-25T02:01:20;103741.47;;;0.12;100.00
63006;BME280;53704;52.532;6.426;2023-01-25T02:03:47;103734.88;;;0.40;100.00
63006;BME280;53704;52.532;6.426;2023-01-25T02:06:15;103734.94;;;0.35;100.00
63006;BME280;53704;52.532;6.426;2023-01-25T02:08:43;103737.81;;;0.21;100.00
63006;BME280;53704;52.532;6.426;2023-01-25T02:11:09;103739.69;;;0.16;100.00
63006;BME280;53704;52.532;6.426;2023-01-25T02:13:36;103741.13;;;-0.22;100.00
63006;BME280;53704;52.532;6.426;2023-01-25T02:16:02;103741.34;;;-0.38;100.00
63006;BME280;53704;52.532;6.426;2023-01-25T02:18:28;103737.47;;;-0.15;100.00
63006;BME280;53704;52.532;6.426;2023-01-25T02:20:56;103742.09;;;-0.28;100.00
63006;BME280;53704;52.532;6.426;2023-01-25T02:23:44;103728.66;;;0.41;100.00
63006;BME280;53704;52.532;6.426;2023-01-25T02:26:13;103731.50;;;0.28;100.00
63006;BME280;53704;52.532;6.426;2023-01-25T02:31:08;103727.72;;;0.43;100.00
63006;BME280;53704;52.532;6.426;2023-01-25T02:33:34;103730.28;;;0.49;100.00
63006;BME280;53704;52.532;6.426;2023-01-25T02:38:42;103717.81;;;0.54;100.00
63006;BME280;53704;52.532;6.426;2023-01-25T02:43:50;103712.91;;;0.31;100.00
63006;BME280;53704;52.532;6.426;2023-01-25T02:48:44;103702.59;;;0.64;100.00
63006;BME280;53704;52.532;6.426;2023-01-25T02:51:10;103694.50;;;0.22;100.00
63006;BME280;53704;52.532;6.426;2023-01-25T02:53:35;103695.72;;;0.03;100.00
63006;BME280;53704;52.532;6.426;2023-01-25T02:56:01;103693.69;;;-0.38;100.00
63006;BME280;53704;52.532;6.426;2023-01-25T02:58:27;103699.38;;;-0.05;100.00
63006;BME280;53704;52.532;6.426;2023-01-25T03:00:52;103693.69;;;-0.36;100.00
63006;BME280;53704;52.532;6.426;2023-01-25T03:03:19;103692.44;;;-0.13;100.00
63006;BME280;53704;52.532;6.426;2023-01-25T03:05:44;103686.38;;;-0.20;100.00
63006;BME280;53704;52.532;6.426;2023-01-25T03:08:09;103688.59;;;0.06;100.00
63006;BME280;53704;52.532;6.426;2023-01-25T03:10:35;103691.63;;;-0.17;100.00
63006;BME280;53704;52.532;6.426;2023-01-25T03:13:00;103694.19;;;-0.11;100.00
63006;BME280;53704;52.532;6.426;2023-01-25T03:15:26;103691.31;;;0.02;100.00
63006;BME280;53704;52.532;6.426;2023-01-25T03:17:52;103692.06;;;0.11;100.00
63006;BME280;53704;52.532;6.426;2023-01-25T03:20:18;103692.44;;;-0.13;100.00
63006;BME280;53704;52.532;6.426;2023-01-25T03:22:43;103688.97;;;-0.17;100.00
63006;BME280;53704;52.532;6.426;2023-01-25T03:25:09;103693.09;;;0.01;100.00
63006;BME280;53704;52.532;6.426;2023-01-25T03:27:34;103689.34;;;0.16;100.00
63006;BME280;53704;52.532;6.426;2023-01-25T03:30:00;103682.69;;;-0.11;100.00
63006;BME280;53704;52.532;6.426;2023-01-25T03:32:25;103679.91;;;-0.02;100.00
63006;BME280;53704;52.532;6.426;2023-01-25T03:34:51;103670.34;;;-0.11;100.00
63006;BME280;53704;52.532;6.426;2023-01-25T03:37:16;103671.41;;;-0.23;100.00
63006;BME280;53704;52.532;6.426;2023-01-25T03:39:42;103672.66;;;0.09;100.00
63006;BME280;53704;52.532;6.426;2023-01-25T03:42:07;103666.44;;;0.12;100.00
63006;BME280;53704;52.532;6.426;2023-01-25T03:44:33;103660.16;;;0.17;100.00
63006;BME280;53704;52.532;6.426;2023-01-25T03:46:58;103659.50;;;0.03;100.00
63006;BME280;53704;52.532;6.426;2023-01-25T03:49:24;103657.28;;;-0.23;100.00
63006;BME280;53704;52.532;6.426;2023-01-25T03:51:49;103660.53;;;-0.04;100.00
63006;BME280;53704;52.532;6.426;2023-01-25T03:54:15;103640.03;;;0.07;100.00
63006;BME280;53704;52.532;6.426;2023-01-25T03:56:40;103631.91;;;0.16;100.00
63006;BME280;53704;52.532;6.426;2023-01-25T03:59:06;103634.50;;;0.20;100.00
63006;BME280;53704;52.532;6.426;2023-01-25T04:01:31;103630.84;;;0.25;100.00
63006;BME280;53704;52.532;6.426;2023-01-25T04:03:57;103623.16;;;0.13;100.00
63006;BME280;53704;52.532;6.426;2023-01-25T04:06:22;103621.69;;;0.45;100.00
63006;BME280;53704;52.532;6.426;2023-01-25T04:08:47;103623.34;;;0.49;100.00
63006;BME280;53704;52.532;6.426;2023-01-25T04:11:13;103622.91;;;0.25;100.00
63006;BME280;53704;52.532;6.426;2023-01-25T04:13:38;103617.78;;;0.17;100.00
63006;BME280;53704;52.532;6.426;2023-01-25T04:16:08;103621.41;;;0.12;100.00
63006;BME280;53704;52.532;6.426;2023-01-25T04:18:35;103607.44;;;0.04;100.00
63006;BME280;53704;52.532;6.426;2023-01-25T04:21:01;103618.16;;;-0.06;100.00
63006;BME280;53704;52.532;6.426;2023-01-25T04:23:27;103610.66;;;0.21;100.00
63006;BME280;53704;52.532;6.426;2023-01-25T04:25:54;103606.09;;;0.28;100.00
63006;BME280;53704;52.532;6.426;2023-01-25T04:28:20;103618.09;;;-0.01;100.00
63006;BME280;53704;52.532;6.426;2023-01-25T04:30:45;103618.41;;;-0.20;100.00
63006;BME280;53704;52.532;6.426;2023-01-25T04:33:11;103609.19;;;0.03;100.00
63006;BME280;53704;52.532;6.426;2023-01-25T04:35:37;103618.34;;;-0.16;100.00
63006;BME280;53704;52.532;6.426;2023-01-25T04:38:02;103614.56;;;0.00;100.00
63006;BME280;53704;52.532;6.426;2023-01-25T04:40:28;103619.78;;;0.02;100.00
63006;BME280;53704;52.532;6.426;2023-01-25T04:42:53;103620.66;;;0.04;100.00
63006;BME280;53704;52.532;6.426;2023-01-25T04:45:19;103627.47;;;-0.34;100.00
63006;BME280;53704;52.532;6.426;2023-01-25T04:47:45;103612.97;;;-0.12;100.00
63006;BME280;53704;52.532;6.426;2023-01-25T04:50:10;103622.00;;;-0.24;100.00
63006;BME280;53704;52.532;6.426;2023-01-25T04:52:35;103619.25;;;-0.19;100.00
63006;BME280;53704;52.532;6.426;2023-01-25T04:55:01;103604.66;;;0.10;100.00
63006;BME280;53704;52.532;6.426;2023-01-25T04:57:27;103602.06;;;0.07;100.00
63006;BME280;53704;52.532;6.426;2023-01-25T04:59:53;103602.50;;;-0.20;100.00
63006;BME280;53704;52.532;6.426;2023-01-25T05:02:18;103599.41;;;0.07;100.00
63006;BME280;53704;52.532;6.426;2023-01-25T05:04:44;103603.22;;;-0.10;100.00
63006;BME280;53704;52.532;6.426;2023-01-25T05:07:10;103601.94;;;0.14;100.00
63006;BME280;53704;52.532;6.426;2023-01-25T05:09:35;103602.75;;;0.18;100.00
63006;BME280;53704;52.532;6.426;2023-01-25T05:12:01;103603.22;;;-0.10;100.00
63006;BME280;53704;52.532;6.426;2023-01-25T05:14:26;103599.16;;;-0.31;100.00
63006;BME280;53704;52.532;6.426;2023-01-25T05:16:51;103595.09;;;0.01;100.00
63006;BME280;53704;52.532;6.426;2023-01-25T05:19:17;103598.19;;;0.25;100.00
63006;BME280;53704;52.532;6.426;2023-01-25T05:21:42;103586.50;;;-0.12;100.00
63006;BME280;53704;52.532;6.426;2023-01-25T05:24:24;103582.97;;;-0.11;100.00
63006;BME280;53704;52.532;6.426;2023-01-25T05:26:50;103599.72;;;-0.10;100.00
63006;BME280;53704;52.532;6.426;2023-01-25T05:29:25;103592.78;;;-0.19;100.00
63006;BME280;53704;52.532;6.426;2023-01-25T05:31:51;103594.03;;;0.11;100.00
63006;BME280;53704;52.532;6.426;2023-01-25T05:34:16;103589.78;;;0.03;100.00
63006;BME280;53704;52.532;6.426;2023-01-25T05:36:42;103594.19;;;0.04;100.00
63006;BME280;53704;52.532;6.426;2023-01-25T05:39:08;103588.16;;;-0.05;100.00
63006;BME280;53704;52.532;6.426;2023-01-25T05:41:33;103601.41;;;-0.61;100.00
63006;BME280;53704;52.532;6.426;2023-01-25T05:43:59;103596.72;;;-0.43;100.00
63006;BME280;53704;52.532;6.426;2023-01-25T05:46:27;103600.97;;;-0.31;100.00
63006;BME280;53704;52.532;6.426;2023-01-25T05:48:54;103591.72;;;-0.07;100.00
63006;BME280;53704;52.532;6.426;2023-01-25T05:51:20;103590.09;;;-0.16;100.00
63006;BME280;53704;52.532;6.426;2023-01-25T05:53:45;103596.63;;;-0.39;100.00
63006;BME280;53704;52.532;6.426;2023-01-25T05:56:10;103592.53;;;-0.04;100.00
63006;BME280;53704;52.532;6.426;2023-01-25T05:58:36;103600.19;;;-0.41;100.00
63006;BME280;53704;52.532;6.426;2023-01-25T06:01:04;103599.03;;;-0.22;100.00
63006;BME280;53704;52.532;6.426;2023-01-25T06:03:30;103605.84;;;-0.08;100.00
63006;BME280;53704;52.532;6.426;2023-01-25T06:05:56;103602.41;;;-0.13;100.00
63006;BME280;53704;52.532;6.426;2023-01-25T06:08:22;103599.06;;;-0.25;100.00
63006;BME280;53704;52.532;6.426;2023-01-25T06:10:48;103593.31;;;0.02;100.00
63006;BME280;53704;52.532;6.426;2023-01-25T06:13:13;103593.19;;;0.08;100.00
63006;BME280;53704;52.532;6.426;2023-01-25T06:15:39;103583.16;;;0.25;100.00
63006;BME280;53704;52.532;6.426;2023-01-25T06:18:04;103597.38;;;0.23;100.00
63006;BME280;53704;52.532;6.426;2023-01-25T06:20:30;103596.19;;;-0.11;100.00
63006;BME280;53704;52.532;6.426;2023-01-25T06:22:55;103601.34;;;-0.02;100.00
63006;BME280;53704;52.532;6.426;2023-01-25T06:25:21;103599.63;;;-0.06;100.00
63006;BME280;53704;52.532;6.426;2023-01-25T06:27:46;103594.50;;;-0.15;100.00
63006;BME280;53704;52.532;6.426;2023-01-25T06:30:12;103601.44;;;-0.08;100.00
63006;BME280;53704;52.532;6.426;2023-01-25T06:32:38;103593.19;;;0.09;100.00
63006;BME280;53704;52.532;6.426;2023-01-25T06:35:04;103589.13;;;-0.10;100.00
63006;BME280;53704;52.532;6.426;2023-01-25T06:37:29;103591.81;;;-0.13;100.00
63006;BME280;53704;52.532;6.426;2023-01-25T06:39:55;103591.53;;;0.04;100.00
63006;BME280;53704;52.532;6.426;2023-01-25T06:42:23;103594.13;;;0.07;100.00
63006;BME280;53704;52.532;6.426;2023-01-25T06:44:48;103595.25;;;-0.08;100.00
63006;BME280;53704;52.532;6.426;2023-01-25T06:47:14;103597.47;;;-0.35;100.00
63006;BME280;53704;52.532;6.426;2023-01-25T06:49:40;103587.34;;;-0.10;100.00
63006;BME280;53704;52.532;6.426;2023-01-25T06:52:05;103582.78;;;0.00;100.00
63006;BME280;53704;52.532;6.426;2023-01-25T06:54:31;103597.38;;;-0.29;100.00
63006;BME280;53704;52.532;6.426;2023-01-25T06:56:56;103594.34;;;-0.62;100.00
63006;BME280;53704;52.532;6.426;2023-01-25T06:59:22;103600.31;;;-0.46;100.00
63006;BME280;53704;52.532;6.426;2023-01-25T07:01:47;103587.44;;;-0.16;100.00
63006;BME280;53704;52.532;6.426;2023-01-25T07:04:13;103600.72;;;-0.74;100.00
63006;BME280;53704;52.532;6.426;2023-01-25T07:06:39;103596.28;;;-0.73;100.00
63006;BME280;53704;52.532;6.426;2023-01-25T07:09:09;103590.28;;;-0.86;100.00
63006;BME280;53704;52.532;6.426;2023-01-25T07:11:35;103597.81;;;-0.57;100.00
63006;BME280;53704;52.532;6.426;2023-01-25T07:14:01;103590.53;;;-0.42;100.00
63006;BME280;53704;52.532;6.426;2023-01-25T07:16:27;103591.44;;;-0.45;100.00
63006;BME280;53704;52.532;6.426;2023-01-25T07:18:53;103579.31;;;-0.58;100.00
63006;BME280;53704;52.532;6.426;2023-01-25T07:21:21;103579.50;;;-0.70;100.00
63006;BME280;53704;52.532;6.426;2023-01-25T07:23:50;103574.78;;;-1.11;100.00
63006;BME280;53704;52.532;6.426;2023-01-25T07:26:25;103559.09;;;-0.64;100.00
63006;BME280;53704;52.532;6.426;2023-01-25T07:28:52;103564.22;;;-0.51;100.00
63006;BME280;53704;52.532;6.426;2023-01-25T07:31:19;103564.38;;;-0.62;100.00
63006;BME280;53704;52.532;6.426;2023-01-25T07:33:48;103563.50;;;-0.61;100.00
63006;BME280;53704;52.532;6.426;2023-01-25T07:36:15;103566.91;;;-0.55;100.00
63006;BME280;53704;52.532;6.426;2023-01-25T07:38:40;103561.25;;;-0.89;100.00
63006;BME280;53704;52.532;6.426;2023-01-25T07:41:06;103552.47;;;-0.91;100.00
63006;BME280;53704;52.532;6.426;2023-01-25T07:43:31;103556.28;;;-0.53;100.00
63006;BME280;53704;52.532;6.426;2023-01-25T07:46:05;103556.97;;;-0.96;100.00
63006;BME280;53704;52.532;6.426;2023-01-25T07:48:32;103554.63;;;-1.21;100.00
63006;BME280;53704;52.532;6.426;2023-01-25T07:50:59;103562.66;;;-1.29;100.00
63006;BME280;53704;52.532;6.426;2023-01-25T07:53:41;103562.53;;;-1.18;100.00
63006;BME280;53704;52.532;6.426;2023-01-25T07:56:08;103565.69;;;-0.91;100.00
63006;BME280;53704;52.532;6.426;2023-01-25T07:58:34;103556.59;;;-0.73;100.00
63006;BME280;53704;52.532;6.426;2023-01-25T08:03:32;103545.50;;;-0.41;100.00
63006;BME280;53704;52.532;6.426;2023-01-25T08:05:57;103553.66;;;-0.55;100.00
63006;BME280;53704;52.532;6.426;2023-01-25T08:08:23;103552.28;;;-0.79;100.00
63006;BME280;53704;52.532;6.426;2023-01-25T08:10:48;103546.94;;;-0.74;100.00
63006;BME280;53704;52.532;6.426;2023-01-25T08:13:14;103536.09;;;-0.59;100.00
63006;BME280;53704;52.532;6.426;2023-01-25T08:15:39;103539.34;;;-0.97;100.00
63006;BME280;53704;52.532;6.426;2023-01-25T08:18:04;103532.44;;;-1.07;100.00
63006;BME280;53704;52.532;6.426;2023-01-25T08:20:30;103546.66;;;-1.18;100.00
63006;BME280;53704;52.532;6.426;2023-01-25T08:22:55;103534.03;;;-0.97;100.00
63006;BME280;53704;52.532;6.426;2023-01-25T08:25:21;103535.75;;;-0.93;100.00
63006;BME280;53704;52.532;6.426;2023-01-25T08:27:47;103536.06;;;-0.57;100.00
63006;BME280;53704;52.532;6.426;2023-01-25T08:30:12;103551.56;;;-0.88;100.00
63006;BME280;53704;52.532;6.426;2023-01-25T08:32:38;103541.03;;;-0.93;100.00
63006;BME280;53704;52.532;6.426;2023-01-25T08:35:04;103548.88;;;-0.85;100.00
63006;BME280;53704;52.532;6.426;2023-01-25T08:37:29;103549.16;;;-1.05;100.00
63006;BME280;53704;52.532;6.426;2023-01-25T08:39:55;103540.97;;;-0.88;100.00
63006;BME280;53704;52.532;6.426;2023-01-25T08:42:22;103535.13;;;-1.11;100.00
63006;BME280;53704;52.532;6.426;2023-01-25T08:44:48;103536.13;;;-1.21;100.00
63006;BME280;53704;52.532;6.426;2023-01-25T08:47:13;103536.50;;;-1.49;100.00
63006;BME280;53704;52.532;6.426;2023-01-25T08:49:39;103526.72;;;-1.42;100.00
63006;BME280;53704;52.532;6.426;2023-01-25T08:52:04;103532.75;;;-1.31;100.00
63006;BME280;53704;52.532;6.426;2023-01-25T08:54:30;103537.72;;;-1.07;100.00
63006;BME280;53704;52.532;6.426;2023-01-25T08:56:55;103534.22;;;-1.11;100.00
63006;BME280;53704;52.532;6.426;2023-01-25T08:59:21;103529.00;;;-1.16;100.00
63006;BME280;53704;52.532;6.426;2023-01-25T09:01:46;103533.47;;;-1.19;100.00
63006;BME280;53704;52.532;6.426;2023-01-25T09:04:12;103518.22;;;-1.00;100.00
63006;BME280;53704;52.532;6.426;2023-01-25T09:06:37;103513.25;;;-0.63;100.00
63006;BME280;53704;52.532;6.426;2023-01-25T09:09:03;103513.72;;;-0.95;100.00
63006;BME280;53704;52.532;6.426;2023-01-25T09:11:29;103510.31;;;-1.02;100.00
63006;BME280;53704;52.532;6.426;2023-01-25T09:13:54;103509.09;;;-1.41;100.00
63006;BME280;53704;52.532;6.426;2023-01-25T09:16:22;103504.81;;;-1.49;100.00
63006;BME280;53704;52.532;6.426;2023-01-25T09:18:53;103491.63;;;-1.52;100.00
63006;BME280;53704;52.532;6.426;2023-01-25T09:21:20;103491.31;;;-1.30;100.00
63006;BME280;53704;52.532;6.426;2023-01-25T09:23:50;103495.03;;;-1.42;100.00
63006;BME280;53704;52.532;6.426;2023-01-25T09:26:16;103497.94;;;-1.00;100.00
63006;BME280;53704;52.532;6.426;2023-01-25T09:28:44;103500.88;;;-1.20;100.00
63006;BME280;53704;52.532;6.426;2023-01-25T09:31:10;103502.59;;;-1.19;100.00
63006;BME280;53704;52.532;6.426;2023-01-25T09:33:38;103502.66;;;-1.22;100.00
63006;BME280;53704;52.532;6.426;2023-01-25T09:36:04;103494.31;;;-1.55;100.00
63006;BME280;53704;52.532;6.426;2023-01-25T09:38:29;103493.53;;;-0.99;100.00
63006;BME280;53704;52.532;6.426;2023-01-25T09:44:34;103486.75;;;-1.19;100.00
63006;BME280;53704;52.532;6.426;2023-01-25T09:46:57;103493.53;;;-0.99;100.00
63006;BME280;53704;52.532;6.426;2023-01-25T09:55:20;103481.53;;;-1.25;100.00
63006;BME280;53704;52.532;6.426;2023-01-25T09:57:47;103477.84;;;-1.12;100.00
63006;BME280;53704;52.532;6.426;2023-01-25T10:00:32;103481.06;;;-0.91;100.00
63006;BME280;53704;52.532;6.426;2023-01-25T10:03:13;103487.59;;;-1.15;100.00
63006;BME280;53704;52.532;6.426;2023-01-25T10:05:45;103485.09;;;-1.26;100.00
63006;BME280;53704;52.532;6.426;2023-01-25T10:08:20;103489.13;;;-1.00;100.00
63006;BME280;53704;52.532;6.426;2023-01-25T10:11:04;103477.81;;;-1.10;100.00
63006;BME280;53704;52.532;6.426;2023-01-25T10:13:32;103467.25;;;-1.10;100.00
63006;BME280;53704;52.532;6.426;2023-01-25T10:18:39;103453.69;;;-0.88;100.00
63006;BME280;53704;52.532;6.426;2023-01-25T10:21:25;103451.91;;;-0.86;100.00
63006;BME280;53704;52.532;6.426;2023-01-25T10:26:56;103441.31;;;-0.86;100.00
63006;BME280;53704;52.532;6.426;2023-01-25T10:29:34;103443.88;;;-0.82;100.00
63006;BME280;53704;52.532;6.426;2023-01-25T10:34:47;103428.81;;;-0.78;100.00
63006;BME280;53704;52.532;6.426;2023-01-25T10:37:18;103422.53;;;-0.69;100.00
63006;BME280;53704;52.532;6.426;2023-01-25T10:40:13;103422.88;;;-0.91;100.00
63006;BME280;53704;52.532;6.426;2023-01-25T10:42:47;103411.75;;;-0.60;100.00
63006;BME280;53704;52.532;6.426;2023-01-25T10:45:15;103416.69;;;-0.40;100.00
63006;BME280;53704;52.532;6.426;2023-01-25T10:47:46;103417.81;;;-0.53;100.00
63006;BME280;53704;52.532;6.426;2023-01-25T10:53:03;103401.47;;;-1.30;100.00
63006;BME280;53704;52.532;6.426;2023-01-25T10:55:28;103397.56;;;-1.06;100.00
63006;BME280;53704;52.532;6.426;2023-01-25T10:57:56;103400.16;;;-1.04;100.00
63006;BME280;53704;52.532;6.426;2023-01-25T11:02:54;103390.75;;;-0.68;100.00
63006;BME280;53704;52.532;6.426;2023-01-25T11:05:36;103385.00;;;-0.92;100.00
63006;BME280;53704;52.532;6.426;2023-01-25T11:10:56;103383.50;;;-0.58;100.00
63006;BME280;53704;52.532;6.426;2023-01-25T11:13:25;103365.84;;;-1.06;100.00
63006;BME280;53704;52.532;6.426;2023-01-25T11:15:54;103364.47;;;-0.77;100.00
63006;BME280;53704;52.532;6.426;2023-01-25T11:18:34;103347.19;;;-1.00;100.00
63006;BME280;53704;52.532;6.426;2023-01-25T11:21:09;103346.59;;;-0.66;100.00
63006;BME280;53704;52.532;6.426;2023-01-25T11:23:36;103329.41;;;-0.88;100.00
63006;BME280;53704;52.532;6.426;2023-01-25T11:26:20;103330.63;;;-1.10;100.00
63006;BME280;53704;52.532;6.426;2023-01-25T11:28:46;103325.25;;;-1.03;100.00
63006;BME280;53704;52.532;6.426;2023-01-25T11:31:21;103321.84;;;-1.10;100.00
63006;BME280;53704;52.532;6.426;2023-01-25T11:33:47;103325.31;;;-1.08;100.00
63006;BME280;53704;52.532;6.426;2023-01-25T11:39:00;103305.81;;;-1.01;100.00
63006;BME280;53704;52.532;6.426;2023-01-25T11:47:16;103286.63;;;-1.12;100.00
63006;BME280;53704;52.532;6.426;2023-01-25T11:50:05;103289.88;;;-0.96;100.00
63006;BME280;53704;52.532;6.426;2023-01-25T11:52:55;103282.59;;;-0.85;100.00
63006;BME280;53704;52.532;6.426;2023-01-25T11:57:58;103263.16;;;-0.84;100.00
63006;BME280;53704;52.532;6.426;2023-01-25T12:00:54;103255.59;;;-1.02;100.00
63006;BME280;53704;52.532;6.426;2023-01-25T12:06:38;103237.47;;;-0.76;100.00
63006;BME280;53704;52.532;6.426;2023-01-25T12:09:15;103233.19;;;-0.83;100.00
63006;BME280;53704;52.532;6.426;2023-01-25T12:23:25;103208.66;;;-0.91;100.00
63006;BME280;53704;52.532;6.426;2023-01-25T12:28:42;103207.47;;;-1.20;100.00
63006;BME280;53704;52.532;6.426;2023-01-25T12:34:17;103197.63;;;-1.12;100.00
63006;BME280;53704;52.532;6.426;2023-01-25T12:36:44;103192.09;;;-0.99;100.00
63006;BME280;53704;52.532;6.426;2023-01-25T12:41:52;103176.47;;;-1.12;100.00
63006;BME280;53704;52.532;6.426;2023-01-25T12:44:42;103177.50;;;-0.77;100.00
63006;BME280;53704;52.532;6.426;2023-01-25T12:47:15;103170.84;;;-0.95;100.00
63006;BME280;53704;52.532;6.426;2023-01-25T12:49:50;103158.41;;;-0.89;100.00
63006;BME280;53704;52.532;6.426;2023-01-25T12:52:23;103146.34;;;-1.04;100.00
63006;BME280;53704;52.532;6.426;2023-01-25T12:54:53;103145.16;;;-0.89;100.00
63006;BME280;53704;52.532;6.426;2023-01-25T13:08:32;103124.09;;;-0.93;100.00
63006;BME280;53704;52.532;6.426;2023-01-25T13:13:38;103109.69;;;-1.20;100.00
63006;BME280;53704;52.532;6.426;2023-01-25T13:18:47;103098.44;;;-0.89;100.00
63006;BME280;53704;52.532;6.426;2023-01-25T13:21:42;103101.34;;;-1.01;100.00
63006;BME280;53704;52.532;6.426;2023-01-25T13:26:45;103104.19;;;-1.11;100.00
63006;BME280;53704;52.532;6.426;2023-01-25T13:31:59;103102.06;;;-1.35;100.00
63006;BME280;53704;52.532;6.426;2023-01-25T13:44:43;103084.72;;;-1.06;100.00
63006;BME280;53704;52.532;6.426;2023-01-25T13:47:15;103079.28;;;-1.00;100.00
63006;BME280;53704;52.532;6.426;2023-01-25T13:49:45;103090.88;;;-1.06;100.00
63006;BME280;53704;52.532;6.426;2023-01-25T13:52:18;103076.09;;;-1.16;100.00
63006;BME280;53704;52.532;6.426;2023-01-25T13:54:45;103075.44;;;-1.26;100.00
63006;BME280;53704;52.532;6.426;2023-01-25T13:57:13;103067.44;;;-1.23;100.00
63006;BME280;53704;52.532;6.426;2023-01-25T13:59:39;103061.94;;;-1.12;100.00
63006;BME280;53704;52.532;6.426;2023-01-25T14:02:19;103064.53;;;-1.09;100.00
63006;BME280;53704;52.532;6.426;2023-01-25T14:04:48;103068.78;;;-1.03;100.00
63006;BME280;53704;52.532;6.426;2023-01-25T14:07:17;103063.38;;;-0.97;100.00
63006;BME280;53704;52.532;6.426;2023-01-25T14:09:46;103056.56;;;-1.07;100.00
63006;BME280;53704;52.532;6.426;2023-01-25T14:12:44;103046.78;;;-1.04;100.00
63006;BME280;53704;52.532;6.426;2023-01-25T14:15:25;103043.94;;;-1.37;100.00
63006;BME280;53704;52.532;6.426;2023-01-25T14:20:35;103044.47;;;-1.19;100.00
63006;BME280;53704;52.532;6.426;2023-01-25T14:23:00;103042.09;;;-1.33;100.00
63006;BME280;53704;52.532;6.426;2023-01-25T14:25:25;103044.31;;;-1.13;100.00
63006;BME280;53704;52.532;6.426;2023-01-25T14:27:54;103050.53;;;-1.16;100.00
63006;BME280;53704;52.532;6.426;2023-01-25T14:30:32;103046.56;;;-1.35;100.00
63006;BME280;53704;52.532;6.426;2023-01-25T14:33:02;103053.94;;;-1.51;100.00
63006;BME280;53704;52.532;6.426;2023-01-25T14:38:08;103052.88;;;-1.44;100.00
63006;BME280;53704;52.532;6.426;2023-01-25T14:40:42;103055.72;;;-1.52;100.00
63006;BME280;53704;52.532;6.426;2023-01-25T14:43:09;103053.72;;;-1.40;100.00
63006;BME280;53704;52.532;6.426;2023-01-25T14:45:34;103041.31;;;-1.37;100.00
63006;BME280;53704;52.532;6.426;2023-01-25T14:47:59;103045.13;;;-1.50;100.00
63006;BME280;53704;52.532;6.426;2023-01-25T14:50:36;103048.81;;;-1.17;100.00